Map

Track Data

SID SEASON NUMBER BASIN SUBBASIN NAME ISO_TIME NATURE LAT LON WMO_WIND WMO_PRES WMO_AGENCY TRACK_TYPE DIST2LAND LANDFALL IFLAG USA_AGENCY USA_ATCF_ID USA_LAT USA_LON USA_RECORD USA_STATUS USA_WIND USA_PRES USA_SSHS USA_R34_NE USA_R34_SE USA_R34_SW USA_R34_NW USA_R50_NE USA_R50_SE USA_R50_SW USA_R50_NW USA_R64_NE USA_R64_SE USA_R64_SW USA_R64_NW USA_POCI USA_ROCI USA_RMW USA_EYE TOKYO_LAT TOKYO_LON TOKYO_GRADE TOKYO_WIND TOKYO_PRES TOKYO_R50_DIR TOKYO_R50_LONG TOKYO_R50_SHORT TOKYO_R30_DIR TOKYO_R30_LONG TOKYO_R30_SHORT TOKYO_LAND CMA_LAT CMA_LON CMA_CAT CMA_WIND CMA_PRES HKO_LAT HKO_LON HKO_CAT HKO_WIND HKO_PRES NEWDELHI_LAT NEWDELHI_LON NEWDELHI_GRADE NEWDELHI_WIND NEWDELHI_PRES NEWDELHI_CI NEWDELHI_DP NEWDELHI_POCI REUNION_LAT REUNION_LON REUNION_TYPE REUNION_WIND REUNION_PRES REUNION_TNUM REUNION_CI REUNION_RMW REUNION_R34_NE REUNION_R34_SE REUNION_R34_SW REUNION_R34_NW REUNION_R50_NE REUNION_R50_SE REUNION_R50_SW REUNION_R50_NW REUNION_R64_NE REUNION_R64_SE REUNION_R64_SW REUNION_R64_NW BOM_LAT BOM_LON BOM_TYPE BOM_WIND BOM_PRES BOM_TNUM BOM_CI BOM_RMW BOM_R34_NE BOM_R34_SE BOM_R34_SW BOM_R34_NW BOM_R50_NE BOM_R50_SE BOM_R50_SW BOM_R50_NW BOM_R64_NE BOM_R64_SE BOM_R64_SW BOM_R64_NW BOM_ROCI BOM_POCI BOM_EYE BOM_POS_METHOD BOM_PRES_METHOD NADI_LAT NADI_LON NADI_CAT NADI_WIND NADI_PRES WELLINGTON_LAT WELLINGTON_LON WELLINGTON_WIND WELLINGTON_PRES DS824_LAT DS824_LON DS824_STAGE DS824_WIND DS824_PRES TD9636_LAT TD9636_LON TD9636_STAGE TD9636_WIND TD9636_PRES TD9635_LAT TD9635_LON TD9635_WIND TD9635_PRES TD9635_ROCI NEUMANN_LAT NEUMANN_LON NEUMANN_CLASS NEUMANN_WIND NEUMANN_PRES MLC_LAT MLC_LON MLC_CLASS MLC_WIND MLC_PRES USA_GUST BOM_GUST BOM_GUST_PER REUNION_GUST REUNION_GUST_PER USA_SEAHGT USA_SEARAD_NE USA_SEARAD_SE USA_SEARAD_SW USA_SEARAD_NW STORM_SPEED STORM_DIR
2020105S13089 2020 22 SI MM JERUTO 2020-04-13 18:00:00 TS -12.8000 89.4000 main 1625 1625 O_____________ jtwc_sh SH262020 -12.8000 89.4000 TD 25 1005 -1 1009 200 11 250
2020105S13089 2020 22 SI MM JERUTO 2020-04-13 21:00:00 TS -12.9904 88.8527 main 1678 1678 P_____________ SH262020 -12.9904 88.8527 TD 25 1004 -1 1008 187 11 248
2020105S13089 2020 22 SI MM JERUTO 2020-04-14 00:00:00 TS -13.2000 88.4000 main 1731 1731 O_____________ jtwc_sh SH262020 -13.2000 88.4000 TD 25 1004 -1 1008 175 9 239
2020105S13089 2020 22 SI MM JERUTO 2020-04-14 03:00:00 TS -13.4422 88.0923 main 1769 1769 P_____________ SH262020 -13.4422 88.0923 TD 25 1004 -1 1008 175 8 229
2020105S13089 2020 22 SI MM JERUTO 2020-04-14 06:00:00 TS -13.7000 87.8000 main 1816 1816 O_____________ jtwc_sh SH262020 -13.7000 87.8000 TD 25 1004 -1 1008 175 30 9 235
2020105S13089 2020 22 SI MM JERUTO 2020-04-14 09:00:00 TS -13.9502 87.3426 main 1878 1878 P_____________ SH262020 -13.9502 87.3426 TD 27 1003 -1 1008 167 30 10 240
2020105S13089 2020 22 SI MM JERUTO 2020-04-14 12:00:00 TS -14.2000 86.9000 main 1924 1924 O_____________ jtwc_sh SH262020 -14.2000 86.9000 TD 30 1003 -1 1008 160 30 8 234
2020105S13089 2020 22 SI MM JERUTO 2020-04-14 15:00:00 TS -14.4347 86.6646 main 1955 1955 P_____________ SH262020 -14.4347 86.6646 TD 35 1003 0 35 37 15 1009 175 30 7 224
2020105S13089 2020 22 SI MM JERUTO 2020-04-14 18:00:00 TS -14.7000 86.4000 main 2001 2001 O_____________ jtwc_sh SH262020 -14.7000 86.4000 TS 40 1003 0 70 75 30 1010 190 30 10 230
2020105S13089 2020 22 SI MM JERUTO 2020-04-14 21:00:00 TS -15.0577 85.8878 main 2071 2071 P_____________ SH262020 -15.0577 85.8878 TS 40 1002 0 82 82 40 1009 170 30 13 237
2020105S13089 2020 22 SI MM JERUTO 2020-04-15 00:00:00 TS -15.4000 85.3000 main 2140 2140 O_____________ jtwc_sh SH262020 -15.4000 85.3000 TS 40 1002 0 95 90 50 1009 150 30 13 243
2020105S13089 2020 22 SI MM JERUTO 2020-04-15 03:00:00 TS -15.6376 84.7325 main 2202 2202 P_____________ SH262020 -15.6376 84.7325 TS 40 1002 0 82 62 1009 142 30 10 247
2020105S13089 2020 22 SI MM JERUTO 2020-04-15 06:00:00 TS -15.8000 84.3000 main 2249 2249 O_____________ jtwc_sh SH262020 -15.8000 84.3000 TS 40 1002 0 75 75 1009 135 30 6 243
2020105S13089 2020 22 SI MM JERUTO 2020-04-15 09:00:00 TS -15.9147 84.1698 main 2264 2264 P_____________ SH262020 -15.9147 84.1698 TS 37 1002 0 75 67 1008 132 30 3 224
2020105S13089 2020 22 SI MM JERUTO 2020-04-15 12:00:00 TS -16.0000 84.1000 main 2280 2280 O_____________ jtwc_sh SH262020 -16.0000 84.1000 TS 35 1003 0 75 60 1008 130 30 3 242
2020105S13089 2020 22 SI MM JERUTO 2020-04-15 15:00:00 TS -16.0698 83.8672 main 2303 2303 P_____________ SH262020 -16.0698 83.8672 TS 35 1003 0 77 60 1008 137 32 6 251
2020105S13089 2020 22 SI MM JERUTO 2020-04-15 18:00:00 TS -16.2000 83.5000 main 2342 2342 O_____________ jtwc_sh SH262020 -16.2000 83.5000 TS 35 1004 0 80 60 1009 145 35 10 245
2020105S13089 2020 22 SI MM JERUTO 2020-04-15 21:00:00 TS -16.4930 82.9281 main 2412 2412 P_____________ SH262020 -16.4930 82.9281 TS 32 1004 -1 1009 145 35 12 240
2020105S13089 2020 22 SI MM JERUTO 2020-04-16 00:00:00 TS -16.8000 82.4000 main 2474 2474 O_____________ jtwc_sh SH262020 -16.8000 82.4000 TD 30 1004 -1 1009 145 35 8 233
2020105S13089 2020 22 SI MM JERUTO 2020-04-16 03:00:00 TS -16.9643 82.2719 main 2497 2497 P_____________ SH262020 -16.9643 82.2719 TD 30 1004 -1 1009 145 35 4 224
2020105S13089 2020 22 SI MM JERUTO 2020-04-16 06:00:00 TS -17.1000 82.1000 main 2520 2515 O_____________ jtwc_sh SH262020 -17.1000 82.1000 TD 30 1005 -1 1009 145 35 9 244
2020105S13089 2020 22 SI MM JERUTO 2020-04-16 09:00:00 TS -17.3533 81.4308 main 2502 2427 P_____________ SH262020 -17.3533 81.4308 TD 30 1002 -1 1009 145 35 14 253
2020105S13089 2020 22 SI MM JERUTO 2020-04-16 12:00:00 TS -17.5000 80.7000 main 2427 2390 O_____________ jtwc_sh SH262020 -17.5000 80.7000 TD 30 1000 -1 1009 145 35 11 274
2020105S13089 2020 22 SI MM JERUTO 2020-04-16 15:00:00 TS -17.2847 80.2594 main 2390 2363 P_____________ SH262020 -17.2847 80.2594 TD 30 1000 -1 1009 145 35 8 301
2020105S13089 2020 22 SI MM JERUTO 2020-04-16 18:00:00 TS -17.1000 80.0000 main 2363 2348 O_____________ jtwc_sh SH262020 -17.1000 80.0000 TD 30 1000 -1 1009 145 35 3 259
2020105S13089 2020 22 SI MM JERUTO 2020-04-16 21:00:00 TS -17.3472 79.9150 main 2348 2329 P_____________ SH262020 -17.3472 79.9150 TD 30 1000 -1 1009 145 35 6 198
2020105S13089 2020 22 SI MM JERUTO 2020-04-17 00:00:00 TS -17.7000 79.8000 main 2329 2283 O_____________ jtwc_sh SH262020 -17.7000 79.8000 TD 30 1000 -1 1009 145 35 8 223
2020105S13089 2020 22 SI MM JERUTO 2020-04-17 03:00:00 TS -17.9255 79.3428 main 2273 2229 P_____________ SH262020 -17.9255 79.3428 TD 30 1000 -1 1009 145 35 9 251
2020105S13089 2020 22 SI MM JERUTO 2020-04-17 06:00:00 TS -18.0000 78.9000 main 2229 2219 O_____________ jtwc_sh SH262020 -18.0000 78.9000 TD 30 1000 -1 1009 145 35 5 272
2020105S13089 2020 22 SI MM JERUTO 2020-04-17 09:00:00 TS -17.9048 78.7748 main 2221 2221 P_____________ SH262020 -17.9048 78.7748 TD 30 1000 -1 1009 145 35 4 347
2020105S13089 2020 22 SI MM JERUTO 2020-04-17 12:00:00 TS -17.6000 78.8000 main 2227 2227 O_____________ jtwc_sh SH262020 -17.6000 78.8000 TD 30 1000 -1 1009 145 35 8 5
2020105S13089 2020 22 SI MM JERUTO 2020-04-17 15:00:00 TS -17.1026 78.8501 main 2249 2249 P_____________ SH262020 -17.1026 78.8501 TD 30 1004 -1 1009 155 35 11 5
2020105S13089 2020 22 SI MM JERUTO 2020-04-17 18:00:00 TS -16.5000 78.9000 main 2264 O_____________ jtwc_sh SH262020 -16.5000 78.9000 TD 30 1008 -1 1009 165 35 12 4

About IBTrACS Database

This database is a web-friendly format of International Best Track Archive for Climate Stewardship (IBTrACS), a global best track data archive curated by NOAA dating back to 1842.

Updated: 2022-01-14